createdAt,value
2023-04-20T00:00:17.664Z,3.30
2023-04-20T00:02:45.267Z,3.28
2023-04-20T00:05:15.094Z,3.90
2023-04-20T00:07:45.155Z,3.75
2023-04-20T00:10:17.826Z,3.38
2023-04-20T00:12:44.475Z,3.50
2023-04-20T00:15:14.232Z,3.80
2023-04-20T00:17:48.680Z,2.63
2023-04-20T00:20:19.110Z,3.10
2023-04-20T00:22:45.830Z,3.10
2023-04-20T00:25:15.049Z,3.25
2023-04-20T00:27:41.841Z,3.63
2023-04-20T00:30:16.593Z,4.63
2023-04-20T00:32:46.503Z,3.35
2023-04-20T00:35:16.263Z,4.03
2023-04-20T00:37:43.381Z,4.85
2023-04-20T00:40:13.120Z,3.53
2023-04-20T00:42:42.038Z,3.45
2023-04-20T00:45:10.802Z,3.53
2023-04-20T00:47:43.712Z,3.03
2023-04-20T00:50:17.583Z,3.10
2023-04-20T00:52:45.592Z,3.83
2023-04-20T00:55:15.467Z,4.28
2023-04-20T00:57:44.487Z,6.88
2023-04-20T01:00:28.544Z,3.33
2023-04-20T01:02:56.447Z,5.03
2023-04-20T01:05:23.681Z,3.78
2023-04-20T01:07:50.506Z,5.25
2023-04-20T01:10:17.646Z,3.65
2023-04-20T01:12:44.536Z,5.40
2023-04-20T01:15:14.134Z,3.00
2023-04-20T01:17:44.013Z,3.25
2023-04-20T01:20:15.153Z,3.47
2023-04-20T01:22:51.294Z,3.40
2023-04-20T01:25:18.850Z,3.30
2023-04-20T01:27:45.859Z,3.45
2023-04-20T01:30:13.607Z,3.35
2023-04-20T01:32:44.716Z,3.35
2023-04-20T01:35:15.967Z,3.47
2023-04-20T01:37:42.980Z,4.32
2023-04-20T01:40:15.590Z,3.60
2023-04-20T01:42:43.628Z,4.25
2023-04-20T01:45:13.448Z,4.35
2023-04-20T01:47:49.397Z,6.15
2023-04-20T01:50:16.281Z,3.90
2023-04-20T01:52:44.220Z,4.28
2023-04-20T01:55:11.904Z,5.57
2023-04-20T01:57:38.814Z,3.75
2023-04-20T02:00:07.133Z,4.00
2023-04-20T02:02:36.960Z,4.05
2023-04-20T02:05:04.608Z,5.38
2023-04-20T02:07:33.660Z,4.30
2023-04-20T02:10:00.493Z,4.65
2023-04-20T02:12:27.247Z,3.90
2023-04-20T02:14:53.922Z,4.65
2023-04-20T02:17:21.017Z,4.03
2023-04-20T02:19:48.167Z,3.53
2023-04-20T02:22:21.931Z,5.00
2023-04-20T02:24:48.705Z,4.32
2023-04-20T02:27:15.687Z,3.67
2023-04-20T02:29:45.737Z,4.63
2023-04-20T02:32:14.795Z,4.13
2023-04-20T02:34:44.705Z,3.60
2023-04-20T02:37:11.574Z,5.32
2023-04-20T02:39:38.390Z,4.25
2023-04-20T02:42:06.289Z,3.95
2023-04-20T02:44:32.955Z,5.35
2023-04-20T02:46:59.692Z,3.78
2023-04-20T02:49:26.799Z,4.30
2023-04-20T02:51:58.570Z,4.40
2023-04-20T02:54:25.704Z,4.00
2023-04-20T02:56:52.379Z,4.70
2023-04-20T02:59:19.300Z,4.78
2023-04-20T03:01:47.074Z,5.15
2023-04-20T03:04:14.050Z,4.60
2023-04-20T03:06:43.965Z,4.53
2023-04-20T03:09:10.702Z,4.38
2023-04-20T03:11:37.401Z,4.93
2023-04-20T03:14:04.181Z,4.25
2023-04-20T03:16:33.897Z,4.32
2023-04-20T03:19:00.709Z,5.13
2023-04-20T03:21:28.777Z,4.20
2023-04-20T03:23:55.588Z,5.60
2023-04-20T03:26:22.337Z,4.53
2023-04-20T03:28:51.189Z,4.55
2023-04-20T03:31:18.256Z,4.35
2023-04-20T03:33:45.125Z,4.68
2023-04-20T03:36:13.323Z,4.95
2023-04-20T03:38:42.393Z,5.93
2023-04-20T03:41:09.265Z,5.95
2023-04-20T03:43:36.077Z,4.60
2023-04-20T03:46:02.813Z,6.43
2023-04-20T03:48:29.469Z,4.72
2023-04-20T03:50:56.180Z,6.55
2023-04-20T03:53:23.377Z,4.95
2023-04-20T03:55:50.217Z,6.15
2023-04-20T03:58:21.011Z,4.88
2023-04-20T04:00:48.285Z,5.25
2023-04-20T04:03:17.711Z,6.82
2023-04-20T04:05:46.933Z,5.28
2023-04-20T04:08:13.619Z,4.90
2023-04-20T04:10:46.114Z,7.43
2023-04-20T04:13:12.850Z,6.57
2023-04-20T04:15:49.800Z,7.18
2023-04-20T04:18:20.508Z,4.72
2023-04-20T04:20:47.290Z,5.57
2023-04-20T04:23:19.952Z,6.07
2023-04-20T04:25:46.691Z,4.95
2023-04-20T04:28:14.741Z,5.90
2023-04-20T04:30:45.413Z,7.20
2023-04-20T04:33:14.737Z,6.88
2023-04-20T04:35:43.832Z,5.95
2023-04-20T04:38:14.028Z,6.45
2023-04-20T04:40:46.797Z,5.22
2023-04-20T04:43:13.506Z,7.03
2023-04-20T04:45:47.312Z,6.13
2023-04-20T04:48:14.438Z,5.40
2023-04-20T04:50:47.418Z,6.53
2023-04-20T04:53:14.281Z,11.50
2023-04-20T04:55:44.385Z,5.85
2023-04-20T04:58:11.354Z,5.68
2023-04-20T05:00:38.824Z,7.00
2023-04-20T05:03:06.144Z,8.13
2023-04-20T05:05:33.330Z,13.80
2023-04-20T05:08:00.068Z,7.93
2023-04-20T05:23:54.647Z,8.52
2023-04-20T05:26:21.488Z,7.18
2023-04-20T05:56:20.829Z,6.60
2023-04-20T05:58:50.988Z,6.40
2023-04-20T06:01:23.694Z,11.07
2023-04-20T06:03:53.911Z,8.70
2023-04-20T06:06:31.206Z,6.30
2023-04-20T06:08:58.225Z,7.18
2023-04-20T06:11:25.085Z,10.65
2023-04-20T06:13:51.798Z,9.90
2023-04-20T06:16:20.202Z,7.43
2023-04-20T06:18:50.422Z,8.10
2023-04-20T06:21:17.790Z,7.68
2023-04-20T06:23:44.701Z,7.88
2023-04-20T06:26:11.750Z,9.00
2023-04-20T06:28:38.648Z,7.20
2023-04-20T06:31:08.091Z,8.18
2023-04-20T06:33:35.053Z,8.00
2023-04-20T06:36:02.929Z,7.85
2023-04-20T06:38:29.614Z,8.02
2023-04-20T06:41:07.317Z,6.90
2023-04-20T06:43:46.182Z,8.43
2023-04-20T06:46:13.068Z,8.35
2023-04-20T06:48:42.165Z,10.52
2023-04-20T06:51:09.016Z,12.07
2023-04-20T06:53:35.862Z,5.85
2023-04-20T06:56:02.796Z,9.73
2023-04-20T06:58:29.504Z,8.57
2023-04-20T07:00:56.488Z,7.97
2023-04-20T07:03:24.206Z,16.55
2023-04-20T07:05:51.399Z,10.35
2023-04-20T07:08:18.119Z,9.13
2023-04-20T07:10:47.781Z,8.13
2023-04-20T07:13:14.734Z,20.05
2023-04-20T07:15:50.718Z,7.95
2023-04-20T07:18:17.423Z,5.35
2023-04-20T07:20:44.244Z,9.05
2023-04-20T07:23:11.057Z,10.13
2023-04-20T07:25:37.760Z,10.98
2023-04-20T07:28:04.486Z,23.30
2023-04-20T07:30:36.754Z,7.70
2023-04-20T07:33:03.617Z,8.45
2023-04-20T07:35:31.051Z,9.32
2023-04-20T07:37:57.714Z,8.95
2023-04-20T07:40:27.328Z,11.07
2023-04-20T07:42:54.177Z,7.78
2023-04-20T07:45:23.799Z,7.95
2023-04-20T07:47:55.131Z,11.80
2023-04-20T07:50:28.685Z,9.20
2023-04-20T07:52:57.753Z,10.50
2023-04-20T07:55:24.770Z,8.35
2023-04-20T07:57:51.518Z,10.02
2023-04-20T08:00:19.491Z,19.52
2023-04-20T08:02:49.252Z,10.18
2023-04-20T08:05:16.364Z,11.25
2023-04-20T08:07:48.700Z,11.55
2023-04-20T08:10:15.564Z,12.23
2023-04-20T08:12:45.307Z,10.27
2023-04-20T08:15:12.196Z,7.40
2023-04-20T08:17:39.003Z,8.73
2023-04-20T08:20:12.387Z,8.70
2023-04-20T08:22:48.428Z,9.33
2023-04-20T08:25:21.234Z,8.70
2023-04-20T08:27:48.178Z,12.00
2023-04-20T08:30:15.412Z,10.68
2023-04-20T08:32:52.158Z,7.65
2023-04-20T08:35:19.359Z,10.63
2023-04-20T08:37:52.027Z,11.63
2023-04-20T08:40:30.832Z,11.63
2023-04-20T08:43:01.736Z,12.90
2023-04-20T08:45:33.058Z,9.82
2023-04-20T08:48:10.443Z,11.40
2023-04-20T08:50:47.506Z,12.65
2023-04-20T08:53:14.346Z,13.30
2023-04-20T08:55:46.821Z,14.40
2023-04-20T08:58:14.942Z,12.77
2023-04-20T09:00:51.123Z,16.83
2023-04-20T09:03:18.271Z,20.65
2023-04-20T09:05:49.357Z,26.38
2023-04-20T09:08:18.476Z,13.82
2023-04-20T09:10:45.323Z,12.93
2023-04-20T09:13:29.847Z,12.23
2023-04-20T09:16:09.842Z,10.63
2023-04-20T09:18:38.322Z,12.18
2023-04-20T09:21:11.007Z,10.40
2023-04-20T09:23:37.915Z,13.95
2023-04-20T09:26:04.768Z,10.48
2023-04-20T09:28:42.550Z,12.27
2023-04-20T09:31:19.704Z,12.23
2023-04-20T09:34:01.756Z,13.45
2023-04-20T09:36:52.671Z,14.27
2023-04-20T09:39:23.691Z,10.50
2023-04-20T09:41:52.811Z,9.18
2023-04-20T09:44:20.029Z,13.25
2023-04-20T09:46:47.438Z,13.90
2023-04-20T09:49:15.208Z,15.02
2023-04-20T09:51:47.628Z,11.63
2023-04-20T09:57:02.066Z,17.13
2023-04-20T09:59:33.386Z,11.40
2023-04-20T10:02:00.548Z,9.63
2023-04-20T10:04:31.404Z,11.23
2023-04-20T10:07:03.210Z,10.85
2023-04-20T10:09:31.591Z,9.13
2023-04-20T10:12:10.131Z,9.07
2023-04-20T10:14:45.029Z,12.48
2023-04-20T10:17:12.027Z,10.18
2023-04-20T10:19:48.024Z,11.63
2023-04-20T10:22:34.547Z,11.02
2023-04-20T10:25:23.995Z,9.57
2023-04-20T10:28:01.755Z,12.48
2023-04-20T10:30:30.494Z,11.02
2023-04-20T10:33:11.672Z,11.13
2023-04-20T10:35:54.621Z,12.45
2023-04-20T10:38:35.769Z,9.23
2023-04-20T10:41:11.361Z,10.45
2023-04-20T10:43:45.173Z,11.60
2023-04-20T10:46:30.612Z,9.38
2023-04-20T10:49:02.411Z,8.00
2023-04-20T10:51:30.530Z,9.13
2023-04-20T10:54:00.413Z,10.48
2023-04-20T10:57:03.094Z,12.50
2023-04-20T11:10:45.500Z,12.98
2023-04-20T11:13:25.844Z,10.95
2023-04-20T11:15:52.850Z,11.27
2023-04-20T11:18:19.693Z,10.43
2023-04-20T11:20:58.280Z,11.88
2023-04-20T11:23:29.947Z,11.68
2023-04-20T11:25:57.759Z,10.40
2023-04-20T11:28:56.710Z,12.07
2023-04-20T11:31:23.905Z,9.57
2023-04-20T11:34:06.642Z,10.93
2023-04-20T11:36:41.576Z,12.45
2023-04-20T11:39:14.020Z,10.32
2023-04-20T11:41:45.201Z,9.50
2023-04-20T11:44:11.952Z,7.38
2023-04-20T11:46:40.377Z,11.02
2023-04-20T11:49:09.234Z,9.45
2023-04-20T11:51:35.997Z,11.07
2023-04-20T11:54:02.768Z,9.30
2023-04-20T11:56:32.856Z,12.60
2023-04-20T11:58:59.616Z,12.65
2023-04-20T12:01:26.291Z,8.43
2023-04-20T12:03:55.588Z,10.50
2023-04-20T12:06:22.774Z,9.02
2023-04-20T12:08:49.692Z,9.85
2023-04-20T12:11:19.025Z,8.52
2023-04-20T12:13:45.669Z,7.72
2023-04-20T12:16:12.400Z,10.70
2023-04-20T12:18:45.155Z,8.43
2023-04-20T12:21:11.866Z,6.30
2023-04-20T12:23:38.740Z,11.68
2023-04-20T12:26:06.534Z,10.80
2023-04-20T12:28:33.500Z,9.10
2023-04-20T12:31:04.050Z,9.55
2023-04-20T12:33:34.120Z,9.30
2023-04-20T12:36:03.924Z,11.30
2023-04-20T12:38:36.506Z,13.20
2023-04-20T12:41:06.229Z,14.30
2023-04-20T12:43:33.084Z,12.48
2023-04-20T12:46:00.058Z,11.80
2023-04-20T12:48:26.840Z,11.50
2023-04-20T12:50:53.516Z,10.05
2023-04-20T12:53:20.530Z,8.05
2023-04-20T12:55:48.226Z,9.35
2023-04-20T12:58:21.156Z,8.32
2023-04-20T13:00:58.716Z,11.18
2023-04-20T13:03:35.920Z,12.05
2023-04-20T13:06:05.978Z,9.48
2023-04-20T13:08:37.190Z,16.38
2023-04-20T13:11:04.103Z,11.27
2023-04-20T13:13:33.073Z,11.50
2023-04-20T13:15:59.724Z,10.90
2023-04-20T13:18:26.464Z,11.13
2023-04-20T13:20:53.287Z,10.93
2023-04-20T13:23:33.589Z,16.63
2023-04-20T13:26:01.760Z,10.38
2023-04-20T13:28:29.605Z,11.27
2023-04-20T13:30:57.652Z,10.95
2023-04-20T13:33:25.789Z,8.95
2023-04-20T13:35:52.887Z,9.50
2023-04-20T13:38:19.832Z,11.43
2023-04-20T13:40:47.285Z,9.88
2023-04-20T13:43:14.515Z,11.75
2023-04-20T13:45:41.724Z,10.52
2023-04-20T13:48:11.167Z,13.93
2023-04-20T13:50:37.855Z,10.20
2023-04-20T13:53:10.443Z,12.05
2023-04-20T13:55:44.130Z,11.63
2023-04-20T13:58:10.913Z,12.88
2023-04-20T14:00:46.623Z,9.55
2023-04-20T14:03:14.307Z,11.68
2023-04-20T14:05:57.474Z,10.77
2023-04-20T14:08:24.158Z,11.30
2023-04-20T14:10:53.943Z,16.88
2023-04-20T14:13:20.961Z,10.45
2023-04-20T14:15:54.261Z,12.18
2023-04-20T14:18:23.762Z,10.47
2023-04-20T14:20:52.319Z,9.02
2023-04-20T14:23:24.444Z,10.38
2023-04-20T14:25:51.128Z,10.57
2023-04-20T14:28:18.398Z,10.63
2023-04-20T14:30:45.942Z,9.50
2023-04-20T14:33:13.167Z,12.60
2023-04-20T14:35:43.866Z,12.05
2023-04-20T14:38:12.750Z,16.35
2023-04-20T14:40:41.754Z,10.00
2023-04-20T14:43:08.853Z,9.55
2023-04-20T14:45:45.994Z,10.73
2023-04-20T14:48:13.228Z,13.80
2023-04-20T14:50:59.297Z,12.00
2023-04-20T14:53:30.108Z,10.77
2023-04-20T14:55:57.774Z,10.57
2023-04-20T14:58:24.584Z,12.25
2023-04-20T15:00:54.003Z,12.43
2023-04-20T15:03:23.600Z,13.25
2023-04-20T15:05:50.754Z,9.43
2023-04-20T15:08:23.373Z,9.85
2023-04-20T15:10:51.969Z,9.82
2023-04-20T15:21:26.031Z,11.38
2023-04-20T15:23:55.775Z,11.48
2023-04-20T15:26:23.596Z,9.98
2023-04-20T15:50:28.716Z,13.13
2023-04-20T16:14:46.471Z,12.20
2023-04-20T16:39:10.166Z,9.23
2023-04-20T16:47:05.594Z,14.40
2023-04-20T17:11:26.259Z,17.55
2023-04-20T17:22:03.549Z,20.13
2023-04-20T17:24:33.398Z,16.08
2023-04-20T17:32:35.666Z,12.23
2023-04-20T17:41:05.280Z,16.25
2023-04-20T17:43:47.229Z,11.60
2023-04-20T17:46:27.062Z,12.55
2023-04-20T17:48:59.385Z,14.63
2023-04-20T17:51:27.728Z,16.88
2023-04-20T17:54:00.273Z,13.88
2023-04-20T17:56:27.557Z,15.32
2023-04-20T17:58:57.275Z,18.40
2023-04-20T18:01:28.330Z,14.73
2023-04-20T18:04:00.974Z,14.80
2023-04-20T18:06:32.929Z,12.18
2023-04-20T18:09:03.117Z,13.95
2023-04-20T18:11:32.902Z,15.82
2023-04-20T18:14:01.275Z,14.50
2023-04-20T18:16:29.398Z,11.35
2023-04-20T18:19:14.670Z,15.82
2023-04-20T18:21:50.852Z,13.50
2023-04-20T18:24:34.594Z,15.60
2023-04-20T18:27:06.452Z,13.00
2023-04-20T18:29:47.964Z,13.95
2023-04-20T18:32:17.164Z,13.48
2023-04-20T18:34:57.831Z,13.80
2023-04-20T18:37:28.960Z,14.65
2023-04-20T18:39:59.346Z,16.50
2023-04-20T18:42:26.837Z,16.30
2023-04-20T18:44:54.461Z,16.08
2023-04-20T18:47:25.296Z,18.10
2023-04-20T18:49:54.402Z,15.05
2023-04-20T18:52:31.013Z,11.00
2023-04-20T18:54:59.238Z,13.82
2023-04-20T18:57:35.718Z,16.88
2023-04-20T19:00:08.575Z,15.40
2023-04-20T19:02:46.271Z,15.77
2023-04-20T19:05:21.030Z,15.48
2023-04-20T19:07:48.351Z,12.73
2023-04-20T19:10:19.401Z,17.73
2023-04-20T19:12:50.281Z,15.88
2023-04-20T19:15:22.804Z,14.45
2023-04-20T19:17:50.490Z,19.08
2023-04-20T19:20:24.040Z,13.50
2023-04-20T19:22:52.108Z,16.50
2023-04-20T19:25:35.047Z,21.40
2023-04-20T19:28:02.101Z,20.02
2023-04-20T19:30:29.912Z,15.90
2023-04-20T19:33:08.088Z,15.80
2023-04-20T19:35:37.972Z,20.10
2023-04-20T19:38:10.265Z,13.82
2023-04-20T19:40:49.828Z,18.33
2023-04-20T19:43:31.390Z,12.68
2023-04-20T19:48:53.983Z,14.38
2023-04-20T19:51:31.616Z,16.85
2023-04-20T19:54:34.313Z,19.48
2023-04-20T19:57:10.401Z,16.48
2023-04-20T19:59:47.379Z,15.65
2023-04-20T20:02:14.908Z,18.17
2023-04-20T20:04:49.900Z,14.07
2023-04-20T20:07:22.083Z,16.45
2023-04-20T20:09:56.542Z,20.55
2023-04-20T20:12:23.696Z,14.65
2023-04-20T20:15:02.159Z,16.00
2023-04-20T20:17:29.505Z,20.55
2023-04-20T20:20:13.775Z,17.23
2023-04-20T20:22:50.018Z,28.17
2023-04-20T20:25:26.014Z,16.00
2023-04-20T20:27:53.815Z,15.50
2023-04-20T20:30:23.104Z,14.45
2023-04-20T20:33:02.973Z,14.73
2023-04-20T20:35:37.473Z,17.70
2023-04-20T20:38:12.833Z,15.82
2023-04-20T20:40:44.870Z,14.07
2023-04-20T20:43:18.315Z,15.10
2023-04-20T20:45:48.870Z,16.55
2023-04-20T20:48:18.412Z,17.42
2023-04-20T20:50:54.985Z,16.52
2023-04-20T20:56:05.683Z,18.13
2023-04-20T20:58:54.412Z,19.55
2023-04-20T21:01:23.336Z,12.32
2023-04-20T21:03:50.966Z,16.63
2023-04-20T21:06:21.217Z,18.92
2023-04-20T21:08:49.208Z,16.88
2023-04-20T21:11:16.606Z,18.25
2023-04-20T21:14:02.333Z,15.68
2023-04-20T21:19:19.609Z,17.55
2023-04-20T21:21:55.169Z,17.83
2023-04-20T21:24:25.609Z,19.15
2023-04-20T21:26:56.794Z,14.88
2023-04-20T21:29:23.894Z,14.45
2023-04-20T21:31:56.884Z,16.58
2023-04-20T21:34:27.375Z,17.05
2023-04-20T21:37:08.312Z,15.57
2023-04-20T21:39:53.035Z,13.05
2023-04-20T21:42:21.171Z,18.00
2023-04-20T21:44:53.319Z,15.80
2023-04-20T21:47:26.421Z,19.02
2023-04-20T21:50:02.461Z,15.27
2023-04-20T21:52:29.606Z,20.83
2023-04-20T21:54:57.231Z,16.77
2023-04-20T21:57:35.236Z,14.48
2023-04-20T22:00:12.130Z,14.38
2023-04-20T22:02:50.569Z,16.23
2023-04-20T22:05:21.401Z,14.82
2023-04-20T22:07:48.618Z,15.88
2023-04-20T22:10:16.045Z,15.90
2023-04-20T22:12:55.358Z,17.60
2023-04-20T22:15:26.481Z,17.95
2023-04-20T22:17:59.499Z,17.85
2023-04-20T22:20:27.283Z,14.95
2023-04-20T22:22:57.592Z,16.85
2023-04-20T22:25:34.237Z,15.85
2023-04-20T22:28:01.457Z,17.02
2023-04-20T22:30:31.617Z,18.55
2023-04-20T22:33:00.299Z,19.63
2023-04-20T22:35:27.977Z,17.10
2023-04-20T22:37:55.608Z,17.60
2023-04-20T22:40:24.421Z,15.57
2023-04-20T22:42:51.571Z,14.10
2023-04-20T22:45:20.687Z,14.75
2023-04-20T22:47:54.518Z,14.05
2023-04-20T22:50:25.708Z,13.63
2023-04-20T22:52:52.420Z,14.65
2023-04-20T22:55:19.185Z,14.90
2023-04-20T22:57:48.355Z,20.05
2023-04-20T23:00:24.159Z,12.05
2023-04-20T23:02:54.208Z,14.05
2023-04-20T23:05:23.744Z,16.13
2023-04-20T23:07:54.049Z,15.30
2023-04-20T23:10:24.737Z,13.98
2023-04-20T23:12:55.032Z,14.05
2023-04-20T23:15:24.833Z,16.33
2023-04-20T23:17:52.028Z,13.48
2023-04-20T23:20:18.847Z,12.40
2023-04-20T23:22:51.373Z,16.10
2023-04-20T23:25:23.546Z,17.35
2023-04-20T23:27:53.426Z,10.30
2023-04-20T23:30:20.262Z,15.25
2023-04-20T23:32:55.701Z,12.43
2023-04-20T23:35:30.415Z,16.45
2023-04-20T23:38:02.341Z,17.50
2023-04-20T23:40:32.316Z,11.27
2023-04-20T23:43:08.593Z,10.73
2023-04-20T23:45:35.561Z,12.27
2023-04-20T23:48:02.347Z,14.38
2023-04-20T23:50:29.132Z,12.68
2023-04-20T23:52:55.743Z,10.18
2023-04-20T23:55:22.626Z,10.70
2023-04-20T23:57:58.322Z,10.88
